sensor_id;sensor_type;location;lat;lon;timestamp;temperature;humidity
22716;DHT22;11525;51.152;4.456;2023-03-14T00:03:35;12.00;99.90
22716;DHT22;11525;51.152;4.456;2023-03-14T00:06:04;12.00;99.90
22716;DHT22;11525;51.152;4.456;2023-03-14T00:08:30;12.10;99.90
22716;DHT22;11525;51.152;4.456;2023-03-14T00:10:56;12.20;99.90
22716;DHT22;11525;51.152;4.456;2023-03-14T00:13:24;12.10;99.90
22716;DHT22;11525;51.152;4.456;2023-03-14T00:15:50;12.20;99.90
22716;DHT22;11525;51.152;4.456;2023-03-14T00:18:16;12.20;99.90
22716;DHT22;11525;51.152;4.456;2023-03-14T00:20:41;12.20;99.90
22716;DHT22;11525;51.152;4.456;2023-03-14T00:23:07;12.20;99.90
22716;DHT22;11525;51.152;4.456;2023-03-14T00:25:35;12.10;99.90
22716;DHT22;11525;51.152;4.456;2023-03-14T00:28:01;12.00;99.90
22716;DHT22;11525;51.152;4.456;2023-03-14T00:30:26;12.00;99.90
22716;DHT22;11525;51.152;4.456;2023-03-14T00:32:52;12.00;99.90
22716;DHT22;11525;51.152;4.456;2023-03-14T00:35:18;11.90;99.90
22716;DHT22;11525;51.152;4.456;2023-03-14T00:37:44;11.90;99.90
22716;DHT22;11525;51.152;4.456;2023-03-14T00:40:10;11.90;99.90
22716;DHT22;11525;51.152;4.456;2023-03-14T00:42:36;11.90;99.90
22716;DHT22;11525;51.152;4.456;2023-03-14T00:45:02;12.00;99.90
22716;DHT22;11525;51.152;4.456;2023-03-14T00:47:27;12.20;99.90
22716;DHT22;11525;51.152;4.456;2023-03-14T00:49:53;12.20;99.90
22716;DHT22;11525;51.152;4.456;2023-03-14T00:52:19;12.20;99.90
22716;DHT22;11525;51.152;4.456;2023-03-14T00:54:45;12.20;99.90
22716;DHT22;11525;51.152;4.456;2023-03-14T00:57:10;12.20;99.90
22716;DHT22;11525;51.152;4.456;2023-03-14T00:59:36;12.20;99.90
22716;DHT22;11525;51.152;4.456;2023-03-14T01:02:02;12.10;99.90
22716;DHT22;11525;51.152;4.456;2023-03-14T01:04:27;12.20;99.90
22716;DHT22;11525;51.152;4.456;2023-03-14T01:06:55;12.10;99.90
22716;DHT22;11525;51.152;4.456;2023-03-14T01:09:21;12.10;99.90
22716;DHT22;11525;51.152;4.456;2023-03-14T01:11:47;12.10;99.90
22716;DHT22;11525;51.152;4.456;2023-03-14T01:14:13;12.30;99.90
22716;DHT22;11525;51.152;4.456;2023-03-14T01:16:39;12.40;99.90
22716;DHT22;11525;51.152;4.456;2023-03-14T01:19:05;12.30;99.90
22716;DHT22;11525;51.152;4.456;2023-03-14T01:21:33;12.30;99.90
22716;DHT22;11525;51.152;4.456;2023-03-14T01:24:00;12.20;99.90
22716;DHT22;11525;51.152;4.456;2023-03-14T01:26:29;12.10;99.90
22716;DHT22;11525;51.152;4.456;2023-03-14T01:28:55;12.10;99.90
22716;DHT22;11525;51.152;4.456;2023-03-14T01:31:21;12.20;99.90
22716;DHT22;11525;51.152;4.456;2023-03-14T01:33:47;12.10;99.90
22716;DHT22;11525;51.152;4.456;2023-03-14T01:36:13;12.00;99.90
22716;DHT22;11525;51.152;4.456;2023-03-14T01:38:40;12.00;99.90
22716;DHT22;11525;51.152;4.456;2023-03-14T01:41:07;12.00;99.90
22716;DHT22;11525;51.152;4.456;2023-03-14T01:43:33;12.10;99.90
22716;DHT22;11525;51.152;4.456;2023-03-14T01:49:07;12.10;99.90
22716;DHT22;11525;51.152;4.456;2023-03-14T01:51:45;11.90;99.90
22716;DHT22;11525;51.152;4.456;2023-03-14T01:54:18;11.90;99.90
22716;DHT22;11525;51.152;4.456;2023-03-14T01:56:50;11.90;99.90
22716;DHT22;11525;51.152;4.456;2023-03-14T01:59:18;12.00;99.90
22716;DHT22;11525;51.152;4.456;2023-03-14T02:01:47;12.00;99.90
22716;DHT22;11525;51.152;4.456;2023-03-14T02:04:14;12.00;99.90
22716;DHT22;11525;51.152;4.456;2023-03-14T02:06:54;11.80;99.90
22716;DHT22;11525;51.152;4.456;2023-03-14T02:09:22;11.70;99.90
22716;DHT22;11525;51.152;4.456;2023-03-14T02:11:49;11.90;99.90
22716;DHT22;11525;51.152;4.456;2023-03-14T02:14:34;11.90;99.90
22716;DHT22;11525;51.152;4.456;2023-03-14T02:17:01;11.90;99.90
22716;DHT22;11525;51.152;4.456;2023-03-14T02:20:26;11.90;99.90
22716;DHT22;11525;51.152;4.456;2023-03-14T02:22:23;11.90;99.90
22716;DHT22;11525;51.152;4.456;2023-03-14T02:27:27;11.70;99.90
22716;DHT22;11525;51.152;4.456;2023-03-14T02:30:00;11.80;99.90
22716;DHT22;11525;51.152;4.456;2023-03-14T02:32:27;12.00;99.90
22716;DHT22;11525;51.152;4.456;2023-03-14T02:34:57;12.00;99.90
22716;DHT22;11525;51.152;4.456;2023-03-14T02:37:32;11.90;99.90
22716;DHT22;11525;51.152;4.456;2023-03-14T02:39:58;12.00;99.90
22716;DHT22;11525;51.152;4.456;2023-03-14T02:42:24;12.10;99.90
22716;DHT22;11525;51.152;4.456;2023-03-14T02:47:34;12.00;99.90
22716;DHT22;11525;51.152;4.456;2023-03-14T02:50:08;12.10;99.90
22716;DHT22;11525;51.152;4.456;2023-03-14T02:52:34;12.00;99.90
22716;DHT22;11525;51.152;4.456;2023-03-14T02:55:00;12.10;99.90
22716;DHT22;11525;51.152;4.456;2023-03-14T02:57:26;12.00;99.90
22716;DHT22;11525;51.152;4.456;2023-03-14T02:59:52;11.90;99.90
22716;DHT22;11525;51.152;4.456;2023-03-14T03:02:18;11.90;99.90
22716;DHT22;11525;51.152;4.456;2023-03-14T03:04:43;11.70;99.90
22716;DHT22;11525;51.152;4.456;2023-03-14T03:07:09;11.60;99.90
22716;DHT22;11525;51.152;4.456;2023-03-14T03:09:35;11.50;99.90
22716;DHT22;11525;51.152;4.456;2023-03-14T03:12:01;11.40;99.90
22716;DHT22;11525;51.152;4.456;2023-03-14T03:14:27;11.40;99.90
22716;DHT22;11525;51.152;4.456;2023-03-14T03:16:53;11.30;99.90
22716;DHT22;11525;51.152;4.456;2023-03-14T03:19:19;11.50;99.90
22716;DHT22;11525;51.152;4.456;2023-03-14T03:21:45;11.70;99.90
22716;DHT22;11525;51.152;4.456;2023-03-14T03:24:11;11.70;99.90
22716;DHT22;11525;51.152;4.456;2023-03-14T03:26:37;11.70;99.90
22716;DHT22;11525;51.152;4.456;2023-03-14T03:29:03;11.60;99.90
22716;DHT22;11525;51.152;4.456;2023-03-14T03:31:29;11.50;99.90
22716;DHT22;11525;51.152;4.456;2023-03-14T03:33:55;11.40;99.90
22716;DHT22;11525;51.152;4.456;2023-03-14T03:36:22;11.40;99.90
22716;DHT22;11525;51.152;4.456;2023-03-14T03:38:49;11.40;99.90
22716;DHT22;11525;51.152;4.456;2023-03-14T03:41:15;11.40;99.90
22716;DHT22;11525;51.152;4.456;2023-03-14T03:43:40;11.30;99.90
22716;DHT22;11525;51.152;4.456;2023-03-14T03:46:07;11.20;99.90
22716;DHT22;11525;51.152;4.456;2023-03-14T03:48:34;11.10;99.90
22716;DHT22;11525;51.152;4.456;2023-03-14T03:51:00;11.10;99.90
22716;DHT22;11525;51.152;4.456;2023-03-14T03:53:26;11.20;99.90
22716;DHT22;11525;51.152;4.456;2023-03-14T03:55:51;11.10;99.90
22716;DHT22;11525;51.152;4.456;2023-03-14T03:58:17;11.20;99.90
22716;DHT22;11525;51.152;4.456;2023-03-14T04:00:43;11.30;99.90
22716;DHT22;11525;51.152;4.456;2023-03-14T04:03:09;11.20;99.90
22716;DHT22;11525;51.152;4.456;2023-03-14T04:05:35;11.20;99.90
22716;DHT22;11525;51.152;4.456;2023-03-14T04:08:01;11.20;99.90
22716;DHT22;11525;51.152;4.456;2023-03-14T04:10:29;11.30;99.90
22716;DHT22;11525;51.152;4.456;2023-03-14T04:12:55;11.20;99.90
22716;DHT22;11525;51.152;4.456;2023-03-14T04:15:20;11.20;99.90
22716;DHT22;11525;51.152;4.456;2023-03-14T04:17:46;11.30;99.90
22716;DHT22;11525;51.152;4.456;2023-03-14T04:20:12;11.30;99.90
22716;DHT22;11525;51.152;4.456;2023-03-14T04:22:39;11.20;99.90
22716;DHT22;11525;51.152;4.456;2023-03-14T04:25:05;11.10;99.90
22716;DHT22;11525;51.152;4.456;2023-03-14T04:27:31;11.20;99.90
22716;DHT22;11525;51.152;4.456;2023-03-14T04:29:57;11.20;99.90
22716;DHT22;11525;51.152;4.456;2023-03-14T04:32:23;11.20;99.90
22716;DHT22;11525;51.152;4.456;2023-03-14T04:34:49;11.20;99.90
22716;DHT22;11525;51.152;4.456;2023-03-14T04:37:15;11.30;99.90
22716;DHT22;11525;51.152;4.456;2023-03-14T04:39:41;11.30;99.90
22716;DHT22;11525;51.152;4.456;2023-03-14T04:42:07;11.60;99.90
22716;DHT22;11525;51.152;4.456;2023-03-14T04:44:33;11.20;99.90
22716;DHT22;11525;51.152;4.456;2023-03-14T04:46:58;11.10;99.90
22716;DHT22;11525;51.152;4.456;2023-03-14T04:49:24;11.20;99.90
22716;DHT22;11525;51.152;4.456;2023-03-14T04:51:50;11.10;99.90
22716;DHT22;11525;51.152;4.456;2023-03-14T04:54:17;11.20;99.90
22716;DHT22;11525;51.152;4.456;2023-03-14T04:56:43;11.30;99.90
22716;DHT22;11525;51.152;4.456;2023-03-14T04:59:09;11.20;99.90
22716;DHT22;11525;51.152;4.456;2023-03-14T05:01:35;11.40;99.90
22716;DHT22;11525;51.152;4.456;2023-03-14T05:04:01;11.40;99.90
22716;DHT22;11525;51.152;4.456;2023-03-14T05:06:27;11.40;99.90
22716;DHT22;11525;51.152;4.456;2023-03-14T05:08:53;11.30;99.90
22716;DHT22;11525;51.152;4.456;2023-03-14T05:11:18;11.20;99.90
22716;DHT22;11525;51.152;4.456;2023-03-14T05:13:44;11.10;99.90
22716;DHT22;11525;51.152;4.456;2023-03-14T05:16:11;11.20;99.90
22716;DHT22;11525;51.152;4.456;2023-03-14T05:18:37;11.20;99.90
22716;DHT22;11525;51.152;4.456;2023-03-14T05:21:03;11.30;99.90
22716;DHT22;11525;51.152;4.456;2023-03-14T05:23:29;11.50;99.90
22716;DHT22;11525;51.152;4.456;2023-03-14T05:25:55;11.40;99.90
22716;DHT22;11525;51.152;4.456;2023-03-14T05:28:21;11.40;99.90
22716;DHT22;11525;51.152;4.456;2023-03-14T05:30:47;11.50;99.90
22716;DHT22;11525;51.152;4.456;2023-03-14T05:33:13;11.60;99.90
22716;DHT22;11525;51.152;4.456;2023-03-14T05:35:38;11.60;99.90
22716;DHT22;11525;51.152;4.456;2023-03-14T05:38:04;11.70;99.90
22716;DHT22;11525;51.152;4.456;2023-03-14T05:40:30;11.70;99.90
22716;DHT22;11525;51.152;4.456;2023-03-14T05:42:56;11.70;99.90
22716;DHT22;11525;51.152;4.456;2023-03-14T05:45:21;11.70;99.90
22716;DHT22;11525;51.152;4.456;2023-03-14T05:47:48;11.70;99.90
22716;DHT22;11525;51.152;4.456;2023-03-14T05:50:14;11.60;99.90
22716;DHT22;11525;51.152;4.456;2023-03-14T05:52:39;11.50;99.90
22716;DHT22;11525;51.152;4.456;2023-03-14T05:55:05;11.40;99.90
22716;DHT22;11525;51.152;4.456;2023-03-14T05:57:31;11.30;99.90
22716;DHT22;11525;51.152;4.456;2023-03-14T05:59:57;11.20;99.90
22716;DHT22;11525;51.152;4.456;2023-03-14T06:02:22;11.20;99.90
22716;DHT22;11525;51.152;4.456;2023-03-14T06:04:48;11.20;99.90
22716;DHT22;11525;51.152;4.456;2023-03-14T06:07:14;11.30;99.90
22716;DHT22;11525;51.152;4.456;2023-03-14T06:09:40;11.30;99.90
22716;DHT22;11525;51.152;4.456;2023-03-14T06:12:06;11.30;99.90
22716;DHT22;11525;51.152;4.456;2023-03-14T06:14:31;11.50;99.90
22716;DHT22;11525;51.152;4.456;2023-03-14T06:16:57;11.50;99.90
22716;DHT22;11525;51.152;4.456;2023-03-14T06:19:25;11.60;99.90
22716;DHT22;11525;51.152;4.456;2023-03-14T06:21:51;11.50;99.90
22716;DHT22;11525;51.152;4.456;2023-03-14T06:24:17;11.40;99.90
22716;DHT22;11525;51.152;4.456;2023-03-14T06:26:43;11.60;99.90
22716;DHT22;11525;51.152;4.456;2023-03-14T06:29:08;11.40;99.90
22716;DHT22;11525;51.152;4.456;2023-03-14T06:31:34;11.40;99.90
22716;DHT22;11525;51.152;4.456;2023-03-14T06:34:00;11.40;99.90
22716;DHT22;11525;51.152;4.456;2023-03-14T06:36:26;11.50;99.90
22716;DHT22;11525;51.152;4.456;2023-03-14T06:38:52;11.30;99.90
22716;DHT22;11525;51.152;4.456;2023-03-14T06:41:17;11.10;99.90
22716;DHT22;11525;51.152;4.456;2023-03-14T06:43:43;10.60;99.90
22716;DHT22;11525;51.152;4.456;2023-03-14T06:46:09;10.30;99.90
22716;DHT22;11525;51.152;4.456;2023-03-14T06:48:35;9.90;99.90
22716;DHT22;11525;51.152;4.456;2023-03-14T06:51:01;9.50;99.90
22716;DHT22;11525;51.152;4.456;2023-03-14T06:53:27;9.40;99.90
22716;DHT22;11525;51.152;4.456;2023-03-14T06:55:52;9.20;99.90
22716;DHT22;11525;51.152;4.456;2023-03-14T06:58:19;9.00;99.90
22716;DHT22;11525;51.152;4.456;2023-03-14T07:00:44;8.90;99.90
22716;DHT22;11525;51.152;4.456;2023-03-14T07:03:10;8.80;99.90
22716;DHT22;11525;51.152;4.456;2023-03-14T07:05:38;8.70;99.90
22716;DHT22;11525;51.152;4.456;2023-03-14T07:08:06;8.70;99.90
22716;DHT22;11525;51.152;4.456;2023-03-14T07:10:32;8.70;99.90
22716;DHT22;11525;51.152;4.456;2023-03-14T07:12:57;8.70;99.90
22716;DHT22;11525;51.152;4.456;2023-03-14T07:15:23;8.60;99.90
22716;DHT22;11525;51.152;4.456;2023-03-14T07:17:49;8.40;99.90
22716;DHT22;11525;51.152;4.456;2023-03-14T07:20:15;8.60;99.90
22716;DHT22;11525;51.152;4.456;2023-03-14T07:22:40;8.80;99.90
22716;DHT22;11525;51.152;4.456;2023-03-14T07:25:06;8.40;99.90
22716;DHT22;11525;51.152;4.456;2023-03-14T07:27:34;8.30;99.90
22716;DHT22;11525;51.152;4.456;2023-03-14T07:30:00;8.30;99.90
22716;DHT22;11525;51.152;4.456;2023-03-14T07:32:26;8.30;99.90
22716;DHT22;11525;51.152;4.456;2023-03-14T07:34:51;8.10;99.90
22716;DHT22;11525;51.152;4.456;2023-03-14T07:37:17;7.90;99.90
22716;DHT22;11525;51.152;4.456;2023-03-14T07:39:43;8.30;99.90
22716;DHT22;11525;51.152;4.456;2023-03-14T07:42:09;8.80;99.90
22716;DHT22;11525;51.152;4.456;2023-03-14T07:44:36;8.90;99.90
22716;DHT22;11525;51.152;4.456;2023-03-14T07:47:02;8.70;99.90
22716;DHT22;11525;51.152;4.456;2023-03-14T07:49:28;8.60;99.90
22716;DHT22;11525;51.152;4.456;2023-03-14T07:51:54;8.60;99.90
22716;DHT22;11525;51.152;4.456;2023-03-14T07:54:19;8.50;99.90
22716;DHT22;11525;51.152;4.456;2023-03-14T07:56:45;8.50;99.90
22716;DHT22;11525;51.152;4.456;2023-03-14T07:59:11;8.40;99.90
22716;DHT22;11525;51.152;4.456;2023-03-14T08:01:37;8.40;99.90
22716;DHT22;11525;51.152;4.456;2023-03-14T08:04:06;8.30;99.90
22716;DHT22;11525;51.152;4.456;2023-03-14T08:06:32;8.40;99.90
22716;DHT22;11525;51.152;4.456;2023-03-14T08:08:57;8.50;99.90
22716;DHT22;11525;51.152;4.456;2023-03-14T08:11:23;8.60;99.90
22716;DHT22;11525;51.152;4.456;2023-03-14T08:13:49;8.70;99.90
22716;DHT22;11525;51.152;4.456;2023-03-14T08:16:17;8.60;99.90
22716;DHT22;11525;51.152;4.456;2023-03-14T08:18:43;8.70;99.90
22716;DHT22;11525;51.152;4.456;2023-03-14T08:21:09;8.70;99.90
22716;DHT22;11525;51.152;4.456;2023-03-14T08:23:35;8.60;99.90
22716;DHT22;11525;51.152;4.456;2023-03-14T08:26:01;8.60;99.90
22716;DHT22;11525;51.152;4.456;2023-03-14T08:28:26;8.90;99.90
22716;DHT22;11525;51.152;4.456;2023-03-14T08:30:56;8.90;99.90
22716;DHT22;11525;51.152;4.456;2023-03-14T08:33:23;9.00;99.90
22716;DHT22;11525;51.152;4.456;2023-03-14T08:35:52;9.00;99.90
22716;DHT22;11525;51.152;4.456;2023-03-14T08:38:18;9.20;99.90
22716;DHT22;11525;51.152;4.456;2023-03-14T08:40:43;9.50;99.90
22716;DHT22;11525;51.152;4.456;2023-03-14T08:43:09;9.70;99.90
22716;DHT22;11525;51.152;4.456;2023-03-14T08:45:35;9.50;99.90
22716;DHT22;11525;51.152;4.456;2023-03-14T08:48:01;9.40;99.90
22716;DHT22;11525;51.152;4.456;2023-03-14T08:50:26;9.40;99.90
22716;DHT22;11525;51.152;4.456;2023-03-14T08:52:52;9.40;99.90
22716;DHT22;11525;51.152;4.456;2023-03-14T08:55:18;9.20;99.90
22716;DHT22;11525;51.152;4.456;2023-03-14T08:57:45;9.20;99.90
22716;DHT22;11525;51.152;4.456;2023-03-14T09:00:11;9.00;99.90
22716;DHT22;11525;51.152;4.456;2023-03-14T09:02:41;8.90;99.90
22716;DHT22;11525;51.152;4.456;2023-03-14T09:05:07;8.90;99.90
22716;DHT22;11525;51.152;4.456;2023-03-14T09:07:33;8.90;99.90
22716;DHT22;11525;51.152;4.456;2023-03-14T09:09:59;8.80;99.90
22716;DHT22;11525;51.152;4.456;2023-03-14T09:12:25;8.60;99.90
22716;DHT22;11525;51.152;4.456;2023-03-14T09:14:51;8.80;99.90
22716;DHT22;11525;51.152;4.456;2023-03-14T09:17:16;9.00;99.90
22716;DHT22;11525;51.152;4.456;2023-03-14T09:19:42;9.10;99.90
22716;DHT22;11525;51.152;4.456;2023-03-14T09:22:08;8.90;99.90
22716;DHT22;11525;51.152;4.456;2023-03-14T09:24:33;8.90;99.90
22716;DHT22;11525;51.152;4.456;2023-03-14T09:26:59;8.80;99.90
22716;DHT22;11525;51.152;4.456;2023-03-14T09:29:25;8.60;99.90
22716;DHT22;11525;51.152;4.456;2023-03-14T09:31:51;8.60;99.90
22716;DHT22;11525;51.152;4.456;2023-03-14T09:34:17;8.60;99.90
22716;DHT22;11525;51.152;4.456;2023-03-14T09:36:43;8.70;99.90
22716;DHT22;11525;51.152;4.456;2023-03-14T09:39:10;8.90;99.90
22716;DHT22;11525;51.152;4.456;2023-03-14T09:41:40;8.60;99.90
22716;DHT22;11525;51.152;4.456;2023-03-14T09:44:19;8.60;99.90
22716;DHT22;11525;51.152;4.456;2023-03-14T09:46:50;8.70;99.90
22716;DHT22;11525;51.152;4.456;2023-03-14T09:49:28;8.80;99.90
22716;DHT22;11525;51.152;4.456;2023-03-14T09:51:56;8.90;99.90
22716;DHT22;11525;51.152;4.456;2023-03-14T09:54:37;8.80;99.90
22716;DHT22;11525;51.152;4.456;2023-03-14T09:57:05;8.70;99.90
22716;DHT22;11525;51.152;4.456;2023-03-14T09:59:31;8.70;99.90
22716;DHT22;11525;51.152;4.456;2023-03-14T10:02:19;8.70;99.90
22716;DHT22;11525;51.152;4.456;2023-03-14T10:04:47;8.70;99.90
22716;DHT22;11525;51.152;4.456;2023-03-14T10:07:15;8.70;99.90
22716;DHT22;11525;51.152;4.456;2023-03-14T10:09:44;8.80;99.90
22716;DHT22;11525;51.152;4.456;2023-03-14T10:12:10;8.90;99.90
22716;DHT22;11525;51.152;4.456;2023-03-14T10:14:45;8.80;99.90
22716;DHT22;11525;51.152;4.456;2023-03-14T10:17:12;8.80;99.90
22716;DHT22;11525;51.152;4.456;2023-03-14T10:22:17;8.80;99.90
22716;DHT22;11525;51.152;4.456;2023-03-14T10:24:54;8.70;99.90
22716;DHT22;11525;51.152;4.456;2023-03-14T10:27:29;8.80;99.90
22716;DHT22;11525;51.152;4.456;2023-03-14T10:30:01;8.90;99.90
22716;DHT22;11525;51.152;4.456;2023-03-14T10:32:36;8.90;99.90
22716;DHT22;11525;51.152;4.456;2023-03-14T10:37:31;9.40;99.90
22716;DHT22;11525;51.152;4.456;2023-03-14T10:40:00;9.10;99.90
22716;DHT22;11525;51.152;4.456;2023-03-14T10:42:33;9.10;99.90
22716;DHT22;11525;51.152;4.456;2023-03-14T10:45:02;9.00;99.90
22716;DHT22;11525;51.152;4.456;2023-03-14T10:47:29;9.10;99.90
22716;DHT22;11525;51.152;4.456;2023-03-14T10:49:56;9.40;99.90
22716;DHT22;11525;51.152;4.456;2023-03-14T10:52:26;9.60;99.90
22716;DHT22;11525;51.152;4.456;2023-03-14T10:55:01;10.00;99.90
22716;DHT22;11525;51.152;4.456;2023-03-14T10:57:27;10.30;99.90
22716;DHT22;11525;51.152;4.456;2023-03-14T10:59:54;10.60;99.90
22716;DHT22;11525;51.152;4.456;2023-03-14T11:05:41;11.20;99.90
22716;DHT22;11525;51.152;4.456;2023-03-14T11:11:02;11.20;99.90
22716;DHT22;11525;51.152;4.456;2023-03-14T11:13:54;11.40;99.90
22716;DHT22;11525;51.152;4.456;2023-03-14T11:19:37;11.30;99.90
22716;DHT22;11525;51.152;4.456;2023-03-14T11:27:18;11.70;99.90
22716;DHT22;11525;51.152;4.456;2023-03-14T11:34:54;11.80;99.90
22716;DHT22;11525;51.152;4.456;2023-03-14T11:37:34;11.40;99.90
22716;DHT22;11525;51.152;4.456;2023-03-14T11:40:10;10.90;99.90
22716;DHT22;11525;51.152;4.456;2023-03-14T11:42:41;10.10;99.90
22716;DHT22;11525;51.152;4.456;2023-03-14T11:45:20;9.60;99.90
22716;DHT22;11525;51.152;4.456;2023-03-14T11:50:38;8.30;99.90
22716;DHT22;11525;51.152;4.456;2023-03-14T11:53:11;7.80;99.90
22716;DHT22;11525;51.152;4.456;2023-03-14T11:55:41;7.90;99.90
22716;DHT22;11525;51.152;4.456;2023-03-14T11:58:26;8.10;99.90
22716;DHT22;11525;51.152;4.456;2023-03-14T12:00:54;8.20;99.90
22716;DHT22;11525;51.152;4.456;2023-03-14T12:06:13;8.30;99.90
22716;DHT22;11525;51.152;4.456;2023-03-14T12:08:49;8.70;99.90
22716;DHT22;11525;51.152;4.456;2023-03-14T12:13:57;10.00;99.90
22716;DHT22;11525;51.152;4.456;2023-03-14T12:43:32;8.10;99.90
22716;DHT22;11525;51.152;4.456;2023-03-14T12:48:46;7.80;99.90
22716;DHT22;11525;51.152;4.456;2023-03-14T12:51:20;7.90;99.90
22716;DHT22;11525;51.152;4.456;2023-03-14T12:56:42;8.50;99.90
22716;DHT22;11525;51.152;4.456;2023-03-14T12:59:18;8.60;99.90
22716;DHT22;11525;51.152;4.456;2023-03-14T13:01:58;8.90;99.90
22716;DHT22;11525;51.152;4.456;2023-03-14T13:04:45;9.20;99.90
22716;DHT22;11525;51.152;4.456;2023-03-14T13:07:19;9.00;99.90
22716;DHT22;11525;51.152;4.456;2023-03-14T13:12:50;8.50;99.90
22716;DHT22;11525;51.152;4.456;2023-03-14T13:15:32;8.40;99.90
22716;DHT22;11525;51.152;4.456;2023-03-14T13:18:14;8.20;99.90
22716;DHT22;11525;51.152;4.456;2023-03-14T13:21:28;8.30;99.90
22716;DHT22;11525;51.152;4.456;2023-03-14T13:23:37;8.50;99.90
22716;DHT22;11525;51.152;4.456;2023-03-14T13:26:03;8.70;99.90
22716;DHT22;11525;51.152;4.456;2023-03-14T13:28:32;8.90;99.90
22716;DHT22;11525;51.152;4.456;2023-03-14T13:31:04;8.90;99.90
22716;DHT22;11525;51.152;4.456;2023-03-14T13:33:33;8.80;99.90
22716;DHT22;11525;51.152;4.456;2023-03-14T13:36:01;8.90;99.90
22716;DHT22;11525;51.152;4.456;2023-03-14T13:38:32;8.90;99.90
22716;DHT22;11525;51.152;4.456;2023-03-14T13:41:00;9.00;99.90
22716;DHT22;11525;51.152;4.456;2023-03-14T13:43:35;9.30;99.90
22716;DHT22;11525;51.152;4.456;2023-03-14T13:46:12;9.50;99.90
22716;DHT22;11525;51.152;4.456;2023-03-14T13:48:50;9.50;99.90
22716;DHT22;11525;51.152;4.456;2023-03-14T13:51:20;9.60;99.90
22716;DHT22;11525;51.152;4.456;2023-03-14T13:53:49;9.70;99.90
22716;DHT22;11525;51.152;4.456;2023-03-14T13:56:23;9.80;99.90
22716;DHT22;11525;51.152;4.456;2023-03-14T13:58:49;9.60;99.90
22716;DHT22;11525;51.152;4.456;2023-03-14T14:01:27;9.50;99.90
22716;DHT22;11525;51.152;4.456;2023-03-14T14:03:57;9.30;99.90
22716;DHT22;11525;51.152;4.456;2023-03-14T14:06:32;9.20;99.90
22716;DHT22;11525;51.152;4.456;2023-03-14T14:09:04;9.00;99.90
22716;DHT22;11525;51.152;4.456;2023-03-14T14:11:38;9.20;99.90
22716;DHT22;11525;51.152;4.456;2023-03-14T14:14:12;9.40;99.90
22716;DHT22;11525;51.152;4.456;2023-03-14T14:16:39;9.40;99.90
22716;DHT22;11525;51.152;4.456;2023-03-14T14:19:05;9.10;99.90
22716;DHT22;11525;51.152;4.456;2023-03-14T14:21:31;9.00;97.30
22716;DHT22;11525;51.152;4.456;2023-03-14T14:23:58;8.90;96.30
22716;DHT22;11525;51.152;4.456;2023-03-14T14:26:26;8.70;91.00
22716;DHT22;11525;51.152;4.456;2023-03-14T14:29:03;8.40;95.00
22716;DHT22;11525;51.152;4.456;2023-03-14T14:31:29;8.10;94.70
22716;DHT22;11525;51.152;4.456;2023-03-14T14:34:01;7.90;89.50
22716;DHT22;11525;51.152;4.456;2023-03-14T14:36:36;7.70;88.40
22716;DHT22;11525;51.152;4.456;2023-03-14T14:39:24;8.00;97.20
22716;DHT22;11525;51.152;4.456;2023-03-14T14:41:52;8.40;95.80
22716;DHT22;11525;51.152;4.456;2023-03-14T14:44:24;8.40;92.90
22716;DHT22;11525;51.152;4.456;2023-03-14T14:46:55;8.00;92.40
22716;DHT22;11525;51.152;4.456;2023-03-14T14:49:20;8.10;96.00
22716;DHT22;11525;51.152;4.456;2023-03-14T14:51:51;8.40;95.30
22716;DHT22;11525;51.152;4.456;2023-03-14T14:54:18;8.50;94.10
22716;DHT22;11525;51.152;4.456;2023-03-14T14:56:50;8.50;93.90
22716;DHT22;11525;51.152;4.456;2023-03-14T14:59:26;8.70;93.80
22716;DHT22;11525;51.152;4.456;2023-03-14T15:02:01;8.90;95.80
22716;DHT22;11525;51.152;4.456;2023-03-14T15:04:30;9.00;95.50
22716;DHT22;11525;51.152;4.456;2023-03-14T15:06:55;9.10;99.90
22716;DHT22;11525;51.152;4.456;2023-03-14T15:09:21;9.10;99.90
22716;DHT22;11525;51.152;4.456;2023-03-14T15:11:47;9.00;99.60
22716;DHT22;11525;51.152;4.456;2023-03-14T15:14:13;9.00;99.90
22716;DHT22;11525;51.152;4.456;2023-03-14T15:16:39;8.90;99.90
22716;DHT22;11525;51.152;4.456;2023-03-14T15:19:20;8.80;99.90
22716;DHT22;11525;51.152;4.456;2023-03-14T15:21:47;8.80;99.90
22716;DHT22;11525;51.152;4.456;2023-03-14T15:24:12;8.70;99.90
22716;DHT22;11525;51.152;4.456;2023-03-14T15:26:38;8.80;99.90
22716;DHT22;11525;51.152;4.456;2023-03-14T15:29:04;8.80;99.90
22716;DHT22;11525;51.152;4.456;2023-03-14T15:31:34;8.80;99.90
22716;DHT22;11525;51.152;4.456;2023-03-14T15:34:00;8.80;99.90
22716;DHT22;11525;51.152;4.456;2023-03-14T15:36:26;9.10;99.90
22716;DHT22;11525;51.152;4.456;2023-03-14T15:38:54;9.00;99.90
22716;DHT22;11525;51.152;4.456;2023-03-14T15:41:20;8.90;99.90
22716;DHT22;11525;51.152;4.456;2023-03-14T15:43:47;8.70;99.90
22716;DHT22;11525;51.152;4.456;2023-03-14T15:46:13;8.50;99.90
22716;DHT22;11525;51.152;4.456;2023-03-14T15:48:40;8.40;99.90
22716;DHT22;11525;51.152;4.456;2023-03-14T15:51:05;8.20;99.90
22716;DHT22;11525;51.152;4.456;2023-03-14T15:53:31;8.20;99.90
22716;DHT22;11525;51.152;4.456;2023-03-14T15:55:57;8.30;99.90
22716;DHT22;11525;51.152;4.456;2023-03-14T15:58:23;8.40;99.90
22716;DHT22;11525;51.152;4.456;2023-03-14T16:00:50;8.50;99.90
22716;DHT22;11525;51.152;4.456;2023-03-14T16:03:16;8.50;99.90
22716;DHT22;11525;51.152;4.456;2023-03-14T16:05:42;8.50;99.90
22716;DHT22;11525;51.152;4.456;2023-03-14T16:08:07;8.50;99.90
22716;DHT22;11525;51.152;4.456;2023-03-14T16:10:33;8.50;99.90
22716;DHT22;11525;51.152;4.456;2023-03-14T16:12:59;8.40;99.90
22716;DHT22;11525;51.152;4.456;2023-03-14T16:15:25;8.50;99.90
22716;DHT22;11525;51.152;4.456;2023-03-14T16:17:55;8.50;99.90
22716;DHT22;11525;51.152;4.456;2023-03-14T16:20:21;8.50;99.90
22716;DHT22;11525;51.152;4.456;2023-03-14T16:22:47;8.60;99.90
22716;DHT22;11525;51.152;4.456;2023-03-14T16:25:14;8.30;99.90
22716;DHT22;11525;51.152;4.456;2023-03-14T16:27:40;8.40;99.90
22716;DHT22;11525;51.152;4.456;2023-03-14T16:30:08;8.40;99.90
22716;DHT22;11525;51.152;4.456;2023-03-14T16:32:35;8.50;99.90
22716;DHT22;11525;51.152;4.456;2023-03-14T16:35:01;8.50;99.90
22716;DHT22;11525;51.152;4.456;2023-03-14T16:37:27;8.50;99.90
22716;DHT22;11525;51.152;4.456;2023-03-14T16:39:53;8.40;99.90
22716;DHT22;11525;51.152;4.456;2023-03-14T16:42:20;8.40;99.90
22716;DHT22;11525;51.152;4.456;2023-03-14T16:44:45;8.30;99.90
22716;DHT22;11525;51.152;4.456;2023-03-14T16:47:11;8.30;99.90
22716;DHT22;11525;51.152;4.456;2023-03-14T16:49:37;8.40;99.90
22716;DHT22;11525;51.152;4.456;2023-03-14T16:52:03;8.40;99.90
22716;DHT22;11525;51.152;4.456;2023-03-14T16:54:29;8.30;99.90
22716;DHT22;11525;51.152;4.456;2023-03-14T16:56:54;8.30;99.90
22716;DHT22;11525;51.152;4.456;2023-03-14T16:59:20;8.20;99.90
22716;DHT22;11525;51.152;4.456;2023-03-14T17:01:46;8.10;99.90
22716;DHT22;11525;51.152;4.456;2023-03-14T17:04:11;8.10;99.90